KWST/WST METAR and TAF weather

Enter ICAO airport designator
Station Type Date Time Source
KWST METAR 2020/02/25 00:53 UTC NOAA

KWST 250053Z AUTO 00000KT 9SM CLR 06/03 A3001 RMK AO2 SLP164 T00560028


Station Type Date Time Source
KWST Decoded METAR 2020/02/25 00:53 UTC NOAA

WESTERLY STATE AIRPORT, RI, United States (KWST) 41-21N 071-48W 21M
Feb 24, 2020 - 07:53 PM EST / 2020.02.25 0053 UTC
Wind: Calm:0
Visibility: 9 mile(s):0
Sky conditions: clear
Temperature: 42.1 F (5.6 C)
Dew Point: 37.0 F (2.8 C)
Relative Humidity: 82%
Pressure (altimeter): 30.01 in. Hg (1016 hPa)
ob: KWST 250053Z AUTO 00000KT 9SM CLR 06/03 A3001 RMK AO2 SLP164 T00560028
cycle: 1

Station Type Date Time Source
KWST TAF UTC NOAA

Error!

Example: see airport list